RYR53RZ LKPR-LDZD
Flight info
| Callsign | RYR53RZ |
|---|---|
| Flight time | 1h 5m |
| Altitude | 35000 |
| Route | VOZ DCT PISAM DCT KOVEL DCT OSPEN/N0446F360 DCT RADLY DCT SABAD DCT LOS |
| Aircraft | B738/M-SDE2E3FGHIRWXY/LB1 |
Departure
| Time | 2026-05-01 09:36 |
|---|---|
| Airport | Václav Havel Airport Prague (LKPR) |
Arrival
| Time | 2026-05-01 10:42 |
|---|---|
| Airport | Zadar Airport (LDZD) |
| Time | Latitude | Longitude | Altitude | Speed | Heading |
|---|---|---|---|---|---|
| 2026-05-01 09:15 | 50.10806 | 14.26137 | 1174 ft | 0 kts | 124° |
| 2026-05-01 09:31 | 50.10799 | 14.26152 | 1173 ft | 4 kts | 123° |
| 2026-05-01 09:31 | 50.10777 | 14.26196 | 1173 ft | 4 kts | 146° |
| 2026-05-01 09:31 | 50.10696 | 14.26140 | 1173 ft | 9 kts | 214° |
| 2026-05-01 09:32 | 50.10634 | 14.26073 | 1173 ft | 12 kts | 213° |
| 2026-05-01 09:32 | 50.10484 | 14.26017 | 1173 ft | 14 kts | 133° |
| 2026-05-01 09:32 | 50.10398 | 14.26195 | 1173 ft | 26 kts | 126° |
| 2026-05-01 09:33 | 50.10282 | 14.26436 | 1173 ft | 27 kts | 126° |
| 2026-05-01 09:33 | 50.10162 | 14.26680 | 1174 ft | 29 kts | 127° |
| 2026-05-01 09:33 | 50.09931 | 14.27159 | 1189 ft | 26 kts | 126° |
| 2026-05-01 09:34 | 50.09812 | 14.27380 | 1189 ft | 27 kts | 134° |
| 2026-05-01 09:34 | 50.09678 | 14.27584 | 1189 ft | 17 kts | 135° |
| 2026-05-01 09:34 | 50.09564 | 14.27596 | 1189 ft | 15 kts | 218° |
| 2026-05-01 09:35 | 50.09470 | 14.27491 | 1189 ft | 17 kts | 216° |
| 2026-05-01 09:35 | 50.09441 | 14.27351 | 1189 ft | 8 kts | 304° |
| 2026-05-01 09:35 | 50.09575 | 14.27072 | 1189 ft | 71 kts | 307° |
| 2026-05-01 09:36 | 50.10050 | 14.26097 | 1173 ft | 151 kts | 307° |
| 2026-05-01 09:36 | 50.10789 | 14.24558 | 1402 ft | 195 kts | 308° |
| 2026-05-01 09:36 | 50.11616 | 14.22871 | 2322 ft | 203 kts | 308° |
| 2026-05-01 09:36 | 50.12272 | 14.20895 | 3031 ft | 219 kts | 283° |
| 2026-05-01 09:37 | 50.12097 | 14.18462 | 3438 ft | 244 kts | 248° |
| 2026-05-01 09:37 | 50.09740 | 14.14618 | 4696 ft | 260 kts | 194° |
| 2026-05-01 09:37 | 50.07964 | 14.14612 | 5398 ft | 261 kts | 159° |
| 2026-05-01 09:38 | 50.04552 | 14.16832 | 6839 ft | 278 kts | 157° |
| 2026-05-01 09:38 | 50.02725 | 14.17812 | 7656 ft | 283 kts | 156° |
| 2026-05-01 09:38 | 50.00848 | 14.18849 | 8493 ft | 287 kts | 155° |
| 2026-05-01 09:39 | 49.97126 | 14.20986 | 10162 ft | 292 kts | 154° |
| 2026-05-01 09:39 | 49.95209 | 14.22103 | 10799 ft | 301 kts | 154° |
| 2026-05-01 09:39 | 49.93177 | 14.23296 | 11163 ft | 321 kts | 154° |
| 2026-05-01 09:40 | 49.91065 | 14.24530 | 11778 ft | 330 kts | 154° |
| 2026-05-01 09:40 | 49.86856 | 14.27323 | 13256 ft | 333 kts | 142° |
| 2026-05-01 09:40 | 49.85136 | 14.29680 | 13974 ft | 327 kts | 124° |
| 2026-05-01 09:41 | 49.83762 | 14.32438 | 14703 ft | 329 kts | 121° |
| 2026-05-01 09:41 | 49.81027 | 14.38155 | 16165 ft | 335 kts | 121° |
| 2026-05-01 09:41 | 49.79636 | 14.41022 | 16861 ft | 338 kts | 121° |
| 2026-05-01 09:42 | 49.78214 | 14.43932 | 17548 ft | 341 kts | 121° |
| 2026-05-01 09:42 | 49.76794 | 14.46826 | 18237 ft | 344 kts | 121° |
| 2026-05-01 09:42 | 49.73882 | 14.52748 | 19462 ft | 351 kts | 121° |
| 2026-05-01 09:43 | 49.70901 | 14.58788 | 20652 ft | 358 kts | 121° |
| 2026-05-01 09:43 | 49.69378 | 14.61841 | 21206 ft | 364 kts | 123° |
| 2026-05-01 09:43 | 49.67686 | 14.64790 | 21788 ft | 369 kts | 127° |
| 2026-05-01 09:44 | 49.64056 | 14.70502 | 22889 ft | 377 kts | 128° |
| 2026-05-01 09:44 | 49.62216 | 14.73373 | 23415 ft | 380 kts | 128° |
| 2026-05-01 09:44 | 49.60359 | 14.76280 | 23917 ft | 384 kts | 128° |
| 2026-05-01 09:45 | 49.58491 | 14.79209 | 24452 ft | 387 kts | 128° |
| 2026-05-01 09:45 | 49.54639 | 14.85024 | 25402 ft | 397 kts | 133° |
| 2026-05-01 09:45 | 49.52464 | 14.87678 | 25941 ft | 402 kts | 139° |
| 2026-05-01 09:46 | 49.50057 | 14.90006 | 26350 ft | 411 kts | 144° |
| 2026-05-01 09:46 | 49.47566 | 14.92107 | 26813 ft | 414 kts | 146° |
| 2026-05-01 09:46 | 49.45016 | 14.94176 | 27232 ft | 418 kts | 146° |
| 2026-05-01 09:46 | 49.42426 | 14.96264 | 27647 ft | 421 kts | 146° |
| 2026-05-01 09:47 | 49.39826 | 14.98355 | 28070 ft | 424 kts | 146° |
| 2026-05-01 09:47 | 49.37240 | 15.00436 | 28487 ft | 426 kts | 146° |
| 2026-05-01 09:47 | 49.34596 | 15.02564 | 28880 ft | 429 kts | 146° |
| 2026-05-01 09:47 | 49.31954 | 15.04688 | 29320 ft | 430 kts | 146° |
| 2026-05-01 09:48 | 49.29303 | 15.06819 | 29702 ft | 432 kts | 146° |
| 2026-05-01 09:48 | 49.26643 | 15.08955 | 30045 ft | 436 kts | 146° |
| 2026-05-01 09:48 | 49.23975 | 15.11098 | 30329 ft | 440 kts | 146° |
| 2026-05-01 09:48 | 49.21243 | 15.13289 | 30668 ft | 443 kts | 146° |
| 2026-05-01 09:49 | 49.18509 | 15.15476 | 31067 ft | 444 kts | 146° |
| 2026-05-01 09:49 | 49.15799 | 15.17643 | 31337 ft | 447 kts | 146° |
| 2026-05-01 09:49 | 49.13018 | 15.19864 | 31640 ft | 450 kts | 146° |
| 2026-05-01 09:49 | 49.10228 | 15.22089 | 31988 ft | 452 kts | 146° |
| 2026-05-01 09:50 | 49.07453 | 15.24301 | 32253 ft | 455 kts | 146° |
| 2026-05-01 09:50 | 49.04628 | 15.26548 | 32630 ft | 455 kts | 146° |
| 2026-05-01 09:50 | 49.01820 | 15.28778 | 32947 ft | 457 kts | 146° |
| 2026-05-01 09:50 | 48.98994 | 15.31021 | 33225 ft | 459 kts | 146° |
| 2026-05-01 09:51 | 48.96152 | 15.33274 | 33350 ft | 464 kts | 146° |
| 2026-05-01 09:51 | 48.93288 | 15.35543 | 33378 ft | 466 kts | 146° |
| 2026-05-01 09:51 | 48.87667 | 15.40381 | 33374 ft | 456 kts | 139° |
| 2026-05-01 09:52 | 48.82508 | 15.45942 | 33376 ft | 455 kts | 137° |
| 2026-05-01 09:52 | 48.77368 | 15.51646 | 33368 ft | 454 kts | 136° |
| 2026-05-01 09:53 | 48.72081 | 15.56888 | 33358 ft | 464 kts | 147° |
| 2026-05-01 09:53 | 48.68972 | 15.58490 | 33385 ft | 476 kts | 163° |
| 2026-05-01 09:53 | 48.65677 | 15.59097 | 33386 ft | 484 kts | 171° |
| 2026-05-01 09:54 | 48.58913 | 15.59143 | 33354 ft | 489 kts | 176° |
| 2026-05-01 09:54 | 48.52167 | 15.58741 | 33355 ft | 487 kts | 177° |
| 2026-05-01 09:55 | 48.45390 | 15.58311 | 33371 ft | 489 kts | 177° |
| 2026-05-01 09:55 | 48.38590 | 15.57896 | 33363 ft | 490 kts | 177° |
| 2026-05-01 09:56 | 48.31820 | 15.57494 | 33355 ft | 489 kts | 177° |
| 2026-05-01 09:56 | 48.24995 | 15.57095 | 33361 ft | 491 kts | 177° |
| 2026-05-01 09:57 | 48.18194 | 15.56701 | 33347 ft | 490 kts | 176° |
| 2026-05-01 09:57 | 48.11415 | 15.56311 | 33343 ft | 490 kts | 177° |
| 2026-05-01 09:58 | 48.04593 | 15.55918 | 33345 ft | 490 kts | 176° |
| 2026-05-01 09:58 | 47.97837 | 15.55533 | 33340 ft | 491 kts | 176° |
| 2026-05-01 09:59 | 47.91009 | 15.55144 | 33331 ft | 490 kts | 176° |
| 2026-05-01 09:59 | 47.84236 | 15.54758 | 33339 ft | 490 kts | 176° |
| 2026-05-01 10:00 | 47.77407 | 15.54373 | 33331 ft | 492 kts | 176° |
| 2026-05-01 10:00 | 47.70553 | 15.53985 | 33319 ft | 491 kts | 176° |
| 2026-05-01 10:01 | 47.63746 | 15.53601 | 33331 ft | 490 kts | 176° |
| 2026-05-01 10:01 | 47.56936 | 15.53216 | 33321 ft | 489 kts | 176° |
| 2026-05-01 10:02 | 47.50132 | 15.52686 | 33313 ft | 493 kts | 180° |
| 2026-05-01 10:02 | 47.43350 | 15.50859 | 33325 ft | 499 kts | 188° |
| 2026-05-01 10:03 | 47.36615 | 15.48292 | 33330 ft | 502 kts | 190° |
| 2026-05-01 10:03 | 47.29882 | 15.45655 | 33335 ft | 502 kts | 190° |
| 2026-05-01 10:04 | 47.23127 | 15.43036 | 33345 ft | 501 kts | 190° |
| 2026-05-01 10:04 | 47.16360 | 15.40439 | 33343 ft | 502 kts | 189° |
| 2026-05-01 10:05 | 47.09614 | 15.37868 | 33351 ft | 503 kts | 189° |
| 2026-05-01 10:05 | 47.02803 | 15.35279 | 33356 ft | 504 kts | 189° |
| 2026-05-01 10:06 | 46.96057 | 15.32718 | 33347 ft | 502 kts | 189° |
| 2026-05-01 10:06 | 46.89328 | 15.30178 | 33347 ft | 502 kts | 189° |
| 2026-05-01 10:07 | 46.82520 | 15.27616 | 33342 ft | 503 kts | 189° |
| 2026-05-01 10:07 | 46.75766 | 15.25080 | 33338 ft | 503 kts | 189° |
| 2026-05-01 10:08 | 46.65570 | 15.21264 | 33322 ft | 503 kts | 189° |
| 2026-05-01 10:09 | 46.58733 | 15.18995 | 33310 ft | 503 kts | 186° |
| 2026-05-01 10:09 | 46.51884 | 15.17041 | 33293 ft | 503 kts | 185° |
| 2026-05-01 10:10 | 46.45029 | 15.15089 | 33304 ft | 502 kts | 185° |
| 2026-05-01 10:10 | 46.34723 | 15.12113 | 33321 ft | 502 kts | 185° |
| 2026-05-01 10:11 | 46.27873 | 15.10122 | 33347 ft | 503 kts | 186° |
| 2026-05-01 10:11 | 46.20983 | 15.08114 | 33335 ft | 505 kts | 185° |
| 2026-05-01 10:12 | 46.14111 | 15.06117 | 33345 ft | 504 kts | 185° |
| 2026-05-01 10:13 | 46.03815 | 15.03139 | 33347 ft | 503 kts | 185° |
| 2026-05-01 10:13 | 45.96954 | 15.01154 | 33346 ft | 502 kts | 185° |
| 2026-05-01 10:14 | 45.86649 | 14.98181 | 33337 ft | 503 kts | 185° |
| 2026-05-01 10:14 | 45.79785 | 14.96232 | 33322 ft | 504 kts | 185° |
| 2026-05-01 10:15 | 45.72945 | 14.94269 | 33328 ft | 503 kts | 185° |
| 2026-05-01 10:15 | 45.66083 | 14.92305 | 33329 ft | 500 kts | 185° |
| 2026-05-01 10:16 | 45.59250 | 14.90361 | 33317 ft | 505 kts | 185° |
| 2026-05-01 10:17 | 45.48956 | 14.87430 | 33314 ft | 501 kts | 185° |
| 2026-05-01 10:17 | 45.38806 | 14.83654 | 33335 ft | 507 kts | 192° |
| 2026-05-01 10:18 | 45.28661 | 14.79209 | 33326 ft | 506 kts | 192° |
| 2026-05-01 10:19 | 45.21928 | 14.76291 | 33352 ft | 509 kts | 191° |
| 2026-05-01 10:19 | 45.15184 | 14.73422 | 33324 ft | 513 kts | 192° |
| 2026-05-01 10:20 | 45.08315 | 14.70525 | 32372 ft | 514 kts | 191° |
| 2026-05-01 10:20 | 45.04911 | 14.69091 | 31620 ft | 517 kts | 191° |
| 2026-05-01 10:20 | 45.01479 | 14.67648 | 30772 ft | 522 kts | 191° |
| 2026-05-01 10:20 | 44.97966 | 14.66169 | 29935 ft | 523 kts | 191° |
| 2026-05-01 10:21 | 44.94527 | 14.64725 | 29268 ft | 520 kts | 191° |
| 2026-05-01 10:21 | 44.87637 | 14.61838 | 27848 ft | 516 kts | 191° |
| 2026-05-01 10:21 | 44.84233 | 14.60409 | 27103 ft | 509 kts | 191° |
| 2026-05-01 10:22 | 44.77581 | 14.57616 | 25747 ft | 492 kts | 192° |
| 2026-05-01 10:22 | 44.71134 | 14.54923 | 24339 ft | 476 kts | 192° |
| 2026-05-01 10:23 | 44.68016 | 14.53624 | 23650 ft | 469 kts | 192° |
| 2026-05-01 10:23 | 44.61868 | 14.51076 | 22315 ft | 454 kts | 191° |
| 2026-05-01 10:23 | 44.58844 | 14.50142 | 21652 ft | 442 kts | 183° |
| 2026-05-01 10:24 | 44.52993 | 14.50537 | 20423 ft | 409 kts | 159° |
| 2026-05-01 10:24 | 44.47889 | 14.53355 | 19167 ft | 383 kts | 140° |
| 2026-05-01 10:25 | 44.43813 | 14.57788 | 18036 ft | 367 kts | 133° |
| 2026-05-01 10:25 | 44.39947 | 14.62438 | 16817 ft | 367 kts | 133° |
| 2026-05-01 10:26 | 44.38002 | 14.64768 | 16219 ft | 367 kts | 133° |
| 2026-05-01 10:26 | 44.36086 | 14.67054 | 15644 ft | 366 kts | 134° |
| 2026-05-01 10:26 | 44.32325 | 14.71794 | 14392 ft | 364 kts | 129° |
| 2026-05-01 10:27 | 44.28860 | 14.76862 | 13201 ft | 361 kts | 128° |
| 2026-05-01 10:27 | 44.25401 | 14.81910 | 12042 ft | 358 kts | 129° |
| 2026-05-01 10:28 | 44.23695 | 14.84380 | 11471 ft | 357 kts | 129° |
| 2026-05-01 10:28 | 44.20313 | 14.89238 | 10740 ft | 331 kts | 130° |
| 2026-05-01 10:28 | 44.18752 | 14.91472 | 10612 ft | 312 kts | 129° |
| 2026-05-01 10:29 | 44.15899 | 14.95563 | 10220 ft | 284 kts | 129° |
| 2026-05-01 10:29 | 44.14535 | 14.97524 | 9845 ft | 278 kts | 128° |
| 2026-05-01 10:30 | 44.11927 | 15.01259 | 9181 ft | 259 kts | 128° |
| 2026-05-01 10:30 | 44.09551 | 15.04652 | 8595 ft | 233 kts | 128° |
| 2026-05-01 10:31 | 44.07061 | 15.07276 | 7960 ft | 226 kts | 156° |
| 2026-05-01 10:31 | 44.03975 | 15.07149 | 7454 ft | 226 kts | 198° |
| 2026-05-01 10:32 | 44.01487 | 15.04610 | 6916 ft | 221 kts | 220° |
| 2026-05-01 10:32 | 44.00342 | 15.03223 | 6629 ft | 219 kts | 213° |
| 2026-05-01 10:32 | 43.97638 | 15.02033 | 6175 ft | 200 kts | 169° |
| 2026-05-01 10:33 | 43.95213 | 15.03293 | 5761 ft | 174 kts | 131° |
| 2026-05-01 10:33 | 43.93623 | 15.05652 | 5361 ft | 167 kts | 122° |
| 2026-05-01 10:34 | 43.92843 | 15.06876 | 5166 ft | 173 kts | 123° |
| 2026-05-01 10:34 | 43.92033 | 15.08143 | 4931 ft | 177 kts | 123° |
| 2026-05-01 10:34 | 43.91223 | 15.09412 | 4686 ft | 176 kts | 120° |
| 2026-05-01 10:35 | 43.90837 | 15.12402 | 4304 ft | 159 kts | 68° |
| 2026-05-01 10:35 | 43.91416 | 15.13661 | 4152 ft | 157 kts | 42° |
| 2026-05-01 10:35 | 43.92264 | 15.14614 | 4035 ft | 158 kts | 41° |
| 2026-05-01 10:35 | 43.93118 | 15.15583 | 3880 ft | 159 kts | 41° |
| 2026-05-01 10:36 | 43.94798 | 15.17495 | 3591 ft | 155 kts | 40° |
| 2026-05-01 10:36 | 43.95637 | 15.18448 | 3457 ft | 157 kts | 41° |
| 2026-05-01 10:36 | 43.96480 | 15.19407 | 3286 ft | 155 kts | 41° |
| 2026-05-01 10:37 | 43.97283 | 15.20322 | 3287 ft | 150 kts | 41° |
| 2026-05-01 10:37 | 43.98696 | 15.22024 | 3569 ft | 119 kts | 43° |
| 2026-05-01 10:37 | 43.99329 | 15.22754 | 3204 ft | 119 kts | 34° |
| 2026-05-01 10:38 | 44.00001 | 15.23433 | 2901 ft | 120 kts | 40° |
| 2026-05-01 10:38 | 44.00643 | 15.24198 | 2570 ft | 122 kts | 44° |
| 2026-05-01 10:38 | 44.01250 | 15.25019 | 2242 ft | 122 kts | 43° |
| 2026-05-01 10:38 | 44.01847 | 15.25857 | 2083 ft | 123 kts | 45° |
| 2026-05-01 10:39 | 44.02443 | 15.26692 | 1938 ft | 124 kts | 43° |
| 2026-05-01 10:39 | 44.03090 | 15.27479 | 1777 ft | 122 kts | 39° |
| 2026-05-01 10:39 | 44.03713 | 15.28285 | 1626 ft | 122 kts | 45° |
| 2026-05-01 10:39 | 44.04315 | 15.29128 | 1496 ft | 123 kts | 47° |
| 2026-05-01 10:40 | 44.04908 | 15.29979 | 1398 ft | 124 kts | 44° |
| 2026-05-01 10:40 | 44.05517 | 15.30833 | 1282 ft | 124 kts | 43° |
| 2026-05-01 10:40 | 44.06132 | 15.31692 | 1158 ft | 129 kts | 44° |
| 2026-05-01 10:40 | 44.06762 | 15.32591 | 872 ft | 129 kts | 45° |
| 2026-05-01 10:41 | 44.07404 | 15.33430 | 540 ft | 123 kts | 40° |
| 2026-05-01 10:41 | 44.08030 | 15.34238 | 300 ft | 125 kts | 42° |
| 2026-05-01 10:41 | 44.09028 | 15.35454 | 258 ft | 59 kts | 41° |
| 2026-05-01 10:42 | 44.09222 | 15.35701 | 262 ft | 12 kts | 41° |
| 2026-05-01 10:42 | 44.09275 | 15.35732 | 263 ft | 4 kts | 349° |
| 2026-05-01 10:42 | 44.09312 | 15.35690 | 264 ft | 11 kts | 308° |
| 2026-05-01 10:42 | 44.09370 | 15.35592 | 263 ft | 15 kts | 311° |
| 2026-05-01 10:43 | 44.09454 | 15.35537 | 264 ft | 13 kts | 357° |
| 2026-05-01 10:43 | 44.09555 | 15.35533 | 263 ft | 16 kts | 355° |
| 2026-05-01 10:43 | 44.09622 | 15.35509 | 264 ft | 8 kts | 297° |
| 2026-05-01 10:43 | 44.09639 | 15.35445 | 264 ft | 6 kts | 323° |
| 2026-05-01 10:44 | 44.09661 | 15.35426 | 264 ft | 2 kts | 328° |
| 2026-05-01 10:44 | 44.09662 | 15.35425 | 264 ft | 0 kts | 328° |